sensor_id;sensor_type;location;lat;lon;timestamp;P1;durP1;ratioP1;P2;durP2;ratioP2
12912;SDS011;6524;51.368;11.984;2022-07-19T04:01:28;6.13;;;4.50;;
12912;SDS011;6524;51.368;11.984;2022-07-19T04:06:28;9.00;;;4.47;;
12912;SDS011;6524;51.368;11.984;2022-07-19T04:11:28;5.53;;;4.22;;
12912;SDS011;6524;51.368;11.984;2022-07-19T04:16:29;5.32;;;4.13;;
12912;SDS011;6524;51.368;11.984;2022-07-19T04:21:29;6.15;;;3.60;;
12912;SDS011;6524;51.368;11.984;2022-07-19T04:26:29;4.45;;;3.75;;
12912;SDS011;6524;51.368;11.984;2022-07-19T04:31:30;6.07;;;4.25;;
12912;SDS011;6524;51.368;11.984;2022-07-19T04:36:30;4.40;;;4.00;;
12912;SDS011;6524;51.368;11.984;2022-07-19T04:41:30;5.90;;;3.85;;
12912;SDS011;6524;51.368;11.984;2022-07-19T04:46:31;8.90;;;4.45;;
12912;SDS011;6524;51.368;11.984;2022-07-19T04:51:31;4.50;;;3.70;;
12912;SDS011;6524;51.368;11.984;2022-07-19T04:56:31;7.43;;;4.28;;
12912;SDS011;6524;51.368;11.984;2022-07-19T05:01:32;5.50;;;4.25;;
12912;SDS011;6524;51.368;11.984;2022-07-19T05:06:32;5.40;;;3.83;;
12912;SDS011;6524;51.368;11.984;2022-07-19T05:11:32;5.75;;;4.28;;
12912;SDS011;6524;51.368;11.984;2022-07-19T05:16:33;6.82;;;4.32;;
12912;SDS011;6524;51.368;11.984;2022-07-19T05:21:33;10.20;;;5.60;;
12912;SDS011;6524;51.368;11.984;2022-07-19T05:26:34;6.30;;;4.47;;
12912;SDS011;6524;51.368;11.984;2022-07-19T05:31:35;7.22;;;4.32;;
12912;SDS011;6524;51.368;11.984;2022-07-19T05:36:35;7.78;;;4.55;;
12912;SDS011;6524;51.368;11.984;2022-07-19T05:41:36;10.77;;;4.43;;
12912;SDS011;6524;51.368;11.984;2022-07-19T05:46:37;5.85;;;4.30;;
12912;SDS011;6524;51.368;11.984;2022-07-19T05:51:41;8.82;;;4.32;;
12912;SDS011;6524;51.368;11.984;2022-07-19T05:56:41;5.22;;;3.80;;
12912;SDS011;6524;51.368;11.984;2022-07-19T06:01:41;4.82;;;3.90;;
12912;SDS011;6524;51.368;11.984;2022-07-19T06:06:42;5.73;;;3.63;;
12912;SDS011;6524;51.368;11.984;2022-07-19T06:11:42;6.07;;;3.58;;
12912;SDS011;6524;51.368;11.984;2022-07-19T06:16:43;5.07;;;3.42;;
12912;SDS011;6524;51.368;11.984;2022-07-19T06:21:43;4.82;;;3.75;;
12912;SDS011;6524;51.368;11.984;2022-07-19T06:26:43;5.90;;;3.47;;
12912;SDS011;6524;51.368;11.984;2022-07-19T06:31:44;4.20;;;3.80;;
12912;SDS011;6524;51.368;11.984;2022-07-19T06:36:44;5.63;;;4.28;;
12912;SDS011;6524;51.368;11.984;2022-07-19T06:41:44;6.63;;;3.50;;
12912;SDS011;6524;51.368;11.984;2022-07-19T06:46:46;4.80;;;3.50;;
12912;SDS011;6524;51.368;11.984;2022-07-19T06:51:46;5.97;;;3.58;;
12912;SDS011;6524;51.368;11.984;2022-07-19T06:56:47;5.50;;;3.58;;
12912;SDS011;6524;51.368;11.984;2022-07-19T07:01:48;4.82;;;3.75;;
12912;SDS011;6524;51.368;11.984;2022-07-19T07:06:48;4.72;;;3.40;;
12912;SDS011;6524;51.368;11.984;2022-07-19T07:11:49;5.10;;;3.40;;
12912;SDS011;6524;51.368;11.984;2022-07-19T07:16:49;6.45;;;3.33;;
12912;SDS011;6524;51.368;11.984;2022-07-19T07:21:49;5.20;;;3.70;;
12912;SDS011;6524;51.368;11.984;2022-07-19T07:26:50;4.65;;;3.40;;
12912;SDS011;6524;51.368;11.984;2022-07-19T07:31:50;5.70;;;3.30;;
12912;SDS011;6524;51.368;11.984;2022-07-19T07:36:50;5.40;;;3.50;;
12912;SDS011;6524;51.368;11.984;2022-07-19T07:41:51;6.53;;;3.13;;
12912;SDS011;6524;51.368;11.984;2022-07-19T07:46:51;3.40;;;2.90;;
12912;SDS011;6524;51.368;11.984;2022-07-19T07:51:52;5.68;;;3.40;;
12912;SDS011;6524;51.368;11.984;2022-07-19T07:56:52;4.32;;;3.00;;
12912;SDS011;6524;51.368;11.984;2022-07-19T08:01:53;3.55;;;3.13;;
12912;SDS011;6524;51.368;11.984;2022-07-19T08:06:53;4.60;;;3.00;;
12912;SDS011;6524;51.368;11.984;2022-07-19T08:11:54;6.15;;;3.50;;
12912;SDS011;6524;51.368;11.984;2022-07-19T08:16:54;4.72;;;3.13;;
12912;SDS011;6524;51.368;11.984;2022-07-19T08:21:54;4.07;;;3.67;;
12912;SDS011;6524;51.368;11.984;2022-07-19T08:26:55;4.53;;;2.90;;
12912;SDS011;6524;51.368;11.984;2022-07-19T08:31:55;5.53;;;3.20;;
12912;SDS011;6524;51.368;11.984;2022-07-19T08:36:56;6.60;;;3.17;;
12912;SDS011;6524;51.368;11.984;2022-07-19T08:41:56;4.68;;;3.25;;
12912;SDS011;6524;51.368;11.984;2022-07-19T08:46:56;3.88;;;3.00;;
12912;SDS011;6524;51.368;11.984;2022-07-19T08:51:58;3.53;;;3.10;;
12912;SDS011;6524;51.368;11.984;2022-07-19T08:57:00;4.10;;;3.25;;
12912;SDS011;6524;51.368;11.984;2022-07-19T09:02:19;5.50;;;3.20;;
12912;SDS011;6524;51.368;11.984;2022-07-19T09:07:19;6.63;;;3.20;;
12912;SDS011;6524;51.368;11.984;2022-07-19T09:12:19;4.03;;;3.20;;
12912;SDS011;6524;51.368;11.984;2022-07-19T09:17:20;5.07;;;3.03;;
12912;SDS011;6524;51.368;11.984;2022-07-19T09:22:21;6.15;;;3.35;;
12912;SDS011;6524;51.368;11.984;2022-07-19T09:27:22;7.40;;;3.40;;
12912;SDS011;6524;51.368;11.984;2022-07-19T09:32:25;5.03;;;3.53;;
12912;SDS011;6524;51.368;11.984;2022-07-19T09:37:26;4.13;;;3.40;;
12912;SDS011;6524;51.368;11.984;2022-07-19T09:42:41;7.82;;;3.22;;
12912;SDS011;6524;51.368;11.984;2022-07-19T09:47:44;7.55;;;3.33;;
12912;SDS011;6524;51.368;11.984;2022-07-19T09:52:46;4.32;;;3.17;;
12912;SDS011;6524;51.368;11.984;2022-07-19T09:57:49;5.45;;;3.20;;
12912;SDS011;6524;51.368;11.984;2022-07-19T10:02:55;4.40;;;2.83;;
12912;SDS011;6524;51.368;11.984;2022-07-19T10:08:00;4.05;;;2.60;;
12912;SDS011;6524;51.368;11.984;2022-07-19T10:13:02;5.15;;;3.20;;
12912;SDS011;6524;51.368;11.984;2022-07-19T10:18:10;3.60;;;3.00;;
12912;SDS011;6524;51.368;11.984;2022-07-19T10:23:13;5.43;;;3.10;;
12912;SDS011;6524;51.368;11.984;2022-07-19T10:28:30;4.33;;;2.97;;
12912;SDS011;6524;51.368;11.984;2022-07-19T10:33:32;6.85;;;2.90;;
12912;SDS011;6524;51.368;11.984;2022-07-19T10:38:33;3.40;;;3.10;;
12912;SDS011;6524;51.368;11.984;2022-07-19T10:43:34;3.45;;;3.10;;
12912;SDS011;6524;51.368;11.984;2022-07-19T10:48:38;4.50;;;3.20;;
12912;SDS011;6524;51.368;11.984;2022-07-19T10:53:56;3.30;;;2.67;;
12912;SDS011;6524;51.368;11.984;2022-07-19T10:58:58;4.25;;;2.92;;
12912;SDS011;6524;51.368;11.984;2022-07-19T11:09:34;4.07;;;2.90;;
12912;SDS011;6524;51.368;11.984;2022-07-19T11:14:42;4.55;;;3.15;;
12912;SDS011;6524;51.368;11.984;2022-07-19T11:19:55;4.15;;;3.00;;
12912;SDS011;6524;51.368;11.984;2022-07-19T11:25:08;3.55;;;2.70;;
12912;SDS011;6524;51.368;11.984;2022-07-19T11:30:10;4.95;;;2.85;;
12912;SDS011;6524;51.368;11.984;2022-07-19T11:35:13;5.30;;;3.10;;
12912;SDS011;6524;51.368;11.984;2022-07-19T11:40:15;2.92;;;2.60;;
12912;SDS011;6524;51.368;11.984;2022-07-19T11:45:16;4.20;;;2.97;;
12912;SDS011;6524;51.368;11.984;2022-07-19T11:50:22;4.15;;;3.10;;
12912;SDS011;6524;51.368;11.984;2022-07-19T11:55:25;4.60;;;3.28;;
12912;SDS011;6524;51.368;11.984;2022-07-19T12:00:27;3.47;;;3.17;;
12912;SDS011;6524;51.368;11.984;2022-07-19T12:05:33;6.95;;;3.30;;
12912;SDS011;6524;51.368;11.984;2022-07-19T12:10:46;3.55;;;3.10;;
12912;SDS011;6524;51.368;11.984;2022-07-19T12:15:51;3.50;;;3.20;;
12912;SDS011;6524;51.368;11.984;2022-07-19T12:26:15;4.72;;;3.17;;
12912;SDS011;6524;51.368;11.984;2022-07-19T12:31:16;3.50;;;3.00;;
12912;SDS011;6524;51.368;11.984;2022-07-19T12:36:34;3.15;;;2.88;;
12912;SDS011;6524;51.368;11.984;2022-07-19T12:41:35;3.55;;;2.72;;
12912;SDS011;6524;51.368;11.984;2022-07-19T12:46:36;4.63;;;2.88;;
12912;SDS011;6524;51.368;11.984;2022-07-19T12:51:36;3.00;;;2.70;;
12912;SDS011;6524;51.368;11.984;2022-07-19T12:56:42;3.00;;;2.80;;
12912;SDS011;6524;51.368;11.984;2022-07-19T13:01:42;3.93;;;2.83;;
12912;SDS011;6524;51.368;11.984;2022-07-19T13:06:43;3.78;;;2.83;;
12912;SDS011;6524;51.368;11.984;2022-07-19T13:11:43;4.07;;;3.15;;
12912;SDS011;6524;51.368;11.984;2022-07-19T13:16:43;3.33;;;2.90;;
12912;SDS011;6524;51.368;11.984;2022-07-19T13:21:44;4.67;;;2.83;;
12912;SDS011;6524;51.368;11.984;2022-07-19T13:26:44;5.43;;;3.03;;
12912;SDS011;6524;51.368;11.984;2022-07-19T13:31:45;4.18;;;3.20;;
12912;SDS011;6524;51.368;11.984;2022-07-19T13:36:45;3.53;;;3.23;;
12912;SDS011;6524;51.368;11.984;2022-07-19T13:41:45;3.13;;;2.90;;
12912;SDS011;6524;51.368;11.984;2022-07-19T13:46:46;3.70;;;2.80;;
12912;SDS011;6524;51.368;11.984;2022-07-19T13:51:46;3.58;;;2.90;;
12912;SDS011;6524;51.368;11.984;2022-07-19T13:56:46;3.38;;;3.08;;
12912;SDS011;6524;51.368;11.984;2022-07-19T14:01:47;4.55;;;3.55;;
12912;SDS011;6524;51.368;11.984;2022-07-19T14:06:47;3.55;;;3.13;;
12912;SDS011;6524;51.368;11.984;2022-07-19T14:11:47;3.40;;;3.10;;
12912;SDS011;6524;51.368;11.984;2022-07-19T14:16:48;3.35;;;3.00;;
12912;SDS011;6524;51.368;11.984;2022-07-19T14:21:48;3.45;;;3.13;;
12912;SDS011;6524;51.368;11.984;2022-07-19T14:26:49;4.70;;;3.20;;
12912;SDS011;6524;51.368;11.984;2022-07-19T14:31:50;3.10;;;2.90;;
12912;SDS011;6524;51.368;11.984;2022-07-19T14:36:50;3.78;;;3.00;;
12912;SDS011;6524;51.368;11.984;2022-07-19T14:41:51;3.30;;;3.00;;
12912;SDS011;6524;51.368;11.984;2022-07-19T14:46:52;3.72;;;3.00;;
12912;SDS011;6524;51.368;11.984;2022-07-19T14:51:53;3.85;;;3.15;;
12912;SDS011;6524;51.368;11.984;2022-07-19T14:56:54;3.75;;;3.10;;
12912;SDS011;6524;51.368;11.984;2022-07-19T15:01:54;3.88;;;2.90;;
12912;SDS011;6524;51.368;11.984;2022-07-19T15:06:55;3.87;;;3.10;;
12912;SDS011;6524;51.368;11.984;2022-07-19T15:11:55;3.90;;;3.00;;
12912;SDS011;6524;51.368;11.984;2022-07-19T15:17:00;3.42;;;3.13;;
12912;SDS011;6524;51.368;11.984;2022-07-19T15:22:02;3.45;;;2.92;;
12912;SDS011;6524;51.368;11.984;2022-07-19T15:27:03;3.50;;;3.20;;
12912;SDS011;6524;51.368;11.984;2022-07-19T15:32:03;3.60;;;2.90;;
12912;SDS011;6524;51.368;11.984;2022-07-19T15:37:04;3.80;;;3.30;;
12912;SDS011;6524;51.368;11.984;2022-07-19T15:42:05;3.58;;;3.05;;
12912;SDS011;6524;51.368;11.984;2022-07-19T15:47:05;3.78;;;3.20;;
12912;SDS011;6524;51.368;11.984;2022-07-19T15:52:06;3.92;;;3.00;;
12912;SDS011;6524;51.368;11.984;2022-07-19T15:57:06;4.28;;;3.13;;
12912;SDS011;6524;51.368;11.984;2022-07-19T16:02:06;4.30;;;3.15;;
12912;SDS011;6524;51.368;11.984;2022-07-19T16:07:07;3.97;;;3.15;;
12912;SDS011;6524;51.368;11.984;2022-07-19T16:12:07;13.02;;;11.70;;
12912;SDS011;6524;51.368;11.984;2022-07-19T16:17:09;12.98;;;11.57;;
12912;SDS011;6524;51.368;11.984;2022-07-19T16:22:10;5.35;;;4.82;;
12912;SDS011;6524;51.368;11.984;2022-07-19T16:27:10;9.60;;;6.60;;
12912;SDS011;6524;51.368;11.984;2022-07-19T16:32:11;7.32;;;5.10;;
12912;SDS011;6524;51.368;11.984;2022-07-19T16:37:12;5.10;;;4.30;;
12912;SDS011;6524;51.368;11.984;2022-07-19T16:42:13;5.55;;;4.05;;
12912;SDS011;6524;51.368;11.984;2022-07-19T16:47:14;4.82;;;3.40;;
12912;SDS011;6524;51.368;11.984;2022-07-19T16:52:14;5.87;;;4.00;;
12912;SDS011;6524;51.368;11.984;2022-07-19T16:57:15;5.55;;;4.53;;
12912;SDS011;6524;51.368;11.984;2022-07-19T17:02:15;6.10;;;3.70;;
12912;SDS011;6524;51.368;11.984;2022-07-19T17:07:16;5.38;;;4.18;;
12912;SDS011;6524;51.368;11.984;2022-07-19T17:12:17;5.95;;;3.72;;
12912;SDS011;6524;51.368;11.984;2022-07-19T17:17:18;3.58;;;3.28;;
12912;SDS011;6524;51.368;11.984;2022-07-19T17:22:18;4.73;;;4.00;;
12912;SDS011;6524;51.368;11.984;2022-07-19T17:27:18;4.53;;;3.00;;
12912;SDS011;6524;51.368;11.984;2022-07-19T17:32:19;5.72;;;3.55;;
12912;SDS011;6524;51.368;11.984;2022-07-19T17:37:19;4.17;;;3.13;;
12912;SDS011;6524;51.368;11.984;2022-07-19T17:42:19;4.13;;;3.80;;
12912;SDS011;6524;51.368;11.984;2022-07-19T17:47:20;4.80;;;3.70;;
12912;SDS011;6524;51.368;11.984;2022-07-19T17:52:20;5.28;;;3.40;;
12912;SDS011;6524;51.368;11.984;2022-07-19T17:57:24;4.70;;;3.28;;
12912;SDS011;6524;51.368;11.984;2022-07-19T18:02:24;3.78;;;3.33;;
12912;SDS011;6524;51.368;11.984;2022-07-19T18:07:27;5.30;;;3.97;;
12912;SDS011;6524;51.368;11.984;2022-07-19T18:12:29;5.68;;;5.10;;
12912;SDS011;6524;51.368;11.984;2022-07-19T18:17:29;6.55;;;5.75;;
12912;SDS011;6524;51.368;11.984;2022-07-19T18:22:29;7.72;;;6.97;;
12912;SDS011;6524;51.368;11.984;2022-07-19T18:27:30;7.78;;;5.75;;
12912;SDS011;6524;51.368;11.984;2022-07-19T18:32:31;8.68;;;5.50;;
12912;SDS011;6524;51.368;11.984;2022-07-19T18:37:31;5.05;;;4.03;;
12912;SDS011;6524;51.368;11.984;2022-07-19T18:42:31;4.22;;;3.83;;
12912;SDS011;6524;51.368;11.984;2022-07-19T18:47:32;5.55;;;3.97;;
12912;SDS011;6524;51.368;11.984;2022-07-19T18:52:32;10.85;;;8.68;;
12912;SDS011;6524;51.368;11.984;2022-07-19T18:57:33;5.80;;;5.27;;
12912;SDS011;6524;51.368;11.984;2022-07-19T19:02:33;7.07;;;5.95;;
12912;SDS011;6524;51.368;11.984;2022-07-19T19:07:34;7.30;;;4.60;;
12912;SDS011;6524;51.368;11.984;2022-07-19T19:12:34;6.25;;;4.72;;
12912;SDS011;6524;51.368;11.984;2022-07-19T19:17:34;10.35;;;6.70;;
12912;SDS011;6524;51.368;11.984;2022-07-19T19:22:35;7.30;;;5.18;;
12912;SDS011;6524;51.368;11.984;2022-07-19T19:27:37;7.78;;;4.20;;
12912;SDS011;6524;51.368;11.984;2022-07-19T19:32:38;6.18;;;4.22;;
12912;SDS011;6524;51.368;11.984;2022-07-19T19:37:38;8.05;;;5.45;;
12912;SDS011;6524;51.368;11.984;2022-07-19T19:42:39;5.65;;;5.07;;
12912;SDS011;6524;51.368;11.984;2022-07-19T19:47:39;6.13;;;4.57;;
12912;SDS011;6524;51.368;11.984;2022-07-19T19:52:39;6.82;;;4.50;;
12912;SDS011;6524;51.368;11.984;2022-07-19T19:57:40;6.25;;;5.00;;
12912;SDS011;6524;51.368;11.984;2022-07-19T20:02:42;6.25;;;4.00;;
12912;SDS011;6524;51.368;11.984;2022-07-19T20:07:43;6.80;;;5.07;;
12912;SDS011;6524;51.368;11.984;2022-07-19T20:12:44;6.50;;;4.63;;
12912;SDS011;6524;51.368;11.984;2022-07-19T20:17:44;5.00;;;4.50;;
12912;SDS011;6524;51.368;11.984;2022-07-19T20:22:45;7.35;;;4.57;;
12912;SDS011;6524;51.368;11.984;2022-07-19T20:27:45;8.25;;;4.43;;
12912;SDS011;6524;51.368;11.984;2022-07-19T20:32:45;5.60;;;4.43;;
12912;SDS011;6524;51.368;11.984;2022-07-19T20:37:46;6.22;;;4.35;;
12912;SDS011;6524;51.368;11.984;2022-07-19T20:42:47;5.38;;;4.88;;
12912;SDS011;6524;51.368;11.984;2022-07-19T20:47:47;7.03;;;4.80;;
12912;SDS011;6524;51.368;11.984;2022-07-19T20:52:48;8.13;;;6.03;;
12912;SDS011;6524;51.368;11.984;2022-07-19T20:57:48;7.07;;;5.60;;
12912;SDS011;6524;51.368;11.984;2022-07-19T21:02:49;9.07;;;5.23;;
12912;SDS011;6524;51.368;11.984;2022-07-19T21:07:49;6.07;;;5.00;;
12912;SDS011;6524;51.368;11.984;2022-07-19T21:12:49;6.38;;;4.70;;
12912;SDS011;6524;51.368;11.984;2022-07-19T21:17:50;6.43;;;4.93;;
12912;SDS011;6524;51.368;11.984;2022-07-19T21:22:51;6.10;;;4.93;;
12912;SDS011;6524;51.368;11.984;2022-07-19T21:27:51;5.93;;;5.22;;
12912;SDS011;6524;51.368;11.984;2022-07-19T21:32:52;7.38;;;5.93;;
12912;SDS011;6524;51.368;11.984;2022-07-19T21:37:52;5.25;;;4.80;;
12912;SDS011;6524;51.368;11.984;2022-07-19T21:42:53;7.22;;;5.22;;
12912;SDS011;6524;51.368;11.984;2022-07-19T21:47:53;7.22;;;5.60;;
12912;SDS011;6524;51.368;11.984;2022-07-19T21:52:54;5.90;;;5.25;;
12912;SDS011;6524;51.368;11.984;2022-07-19T21:57:54;7.00;;;4.80;;
12912;SDS011;6524;51.368;11.984;2022-07-19T22:07:59;7.80;;;5.38;;
12912;SDS011;6524;51.368;11.984;2022-07-19T22:12:59;9.70;;;6.30;;
12912;SDS011;6524;51.368;11.984;2022-07-19T22:18:00;7.70;;;5.53;;
12912;SDS011;6524;51.368;11.984;2022-07-19T22:23:01;7.20;;;5.15;;
12912;SDS011;6524;51.368;11.984;2022-07-19T22:28:02;7.67;;;5.30;;
12912;SDS011;6524;51.368;11.984;2022-07-19T22:33:03;6.35;;;5.30;;
12912;SDS011;6524;51.368;11.984;2022-07-19T22:38:04;7.03;;;5.00;;
12912;SDS011;6524;51.368;11.984;2022-07-19T22:43:05;6.68;;;5.20;;
12912;SDS011;6524;51.368;11.984;2022-07-19T22:48:05;6.35;;;5.10;;
12912;SDS011;6524;51.368;11.984;2022-07-19T22:53:08;7.68;;;5.00;;
12912;SDS011;6524;51.368;11.984;2022-07-19T22:58:13;8.40;;;4.72;;
12912;SDS011;6524;51.368;11.984;2022-07-19T23:03:14;5.95;;;5.05;;
12912;SDS011;6524;51.368;11.984;2022-07-19T23:08:14;8.43;;;5.13;;
12912;SDS011;6524;51.368;11.984;2022-07-19T23:13:15;8.40;;;4.97;;
12912;SDS011;6524;51.368;11.984;2022-07-19T23:18:15;8.55;;;4.68;;
12912;SDS011;6524;51.368;11.984;2022-07-19T23:23:15;5.50;;;4.80;;
12912;SDS011;6524;51.368;11.984;2022-07-19T23:28:16;6.97;;;5.38;;
12912;SDS011;6524;51.368;11.984;2022-07-19T23:33:16;8.10;;;4.77;;
12912;SDS011;6524;51.368;11.984;2022-07-19T23:38:16;7.30;;;4.82;;
12912;SDS011;6524;51.368;11.984;2022-07-19T23:43:17;8.10;;;4.97;;
12912;SDS011;6524;51.368;11.984;2022-07-19T23:48:17;6.43;;;5.40;;
12912;SDS011;6524;51.368;11.984;2022-07-19T23:53:17;9.73;;;4.72;;
12912;SDS011;6524;51.368;11.984;2022-07-19T23:58:18;8.38;;;4.82;;
